sensor_id;sensor_type;location;lat;lon;timestamp;P1;P2;P0
69238;PMS5003;56349;51.816;-0.026;2023-07-28T00:02:07;2;2;
69238;PMS5003;56349;51.816;-0.026;2023-07-28T00:04:34;3;3;
69238;PMS5003;56349;51.816;-0.026;2023-07-28T00:06:58;5;4;
69238;PMS5003;56349;51.816;-0.026;2023-07-28T00:09:24;4;4;
69238;PMS5003;56349;51.816;-0.026;2023-07-28T00:11:50;3;3;
69238;PMS5003;56349;51.816;-0.026;2023-07-28T00:14:16;2;2;
69238;PMS5003;56349;51.816;-0.026;2023-07-28T00:16:41;4;3;
69238;PMS5003;56349;51.816;-0.026;2023-07-28T00:19:08;4;3;
69238;PMS5003;56349;51.816;-0.026;2023-07-28T00:21:34;4;3;
69238;PMS5003;56349;51.816;-0.026;2023-07-28T00:24:00;3;3;
69238;PMS5003;56349;51.816;-0.026;2023-07-28T00:26:26;3;3;
69238;PMS5003;56349;51.816;-0.026;2023-07-28T00:28:52;4;4;
69238;PMS5003;56349;51.816;-0.026;2023-07-28T00:31:18;3;3;
69238;PMS5003;56349;51.816;-0.026;2023-07-28T00:33:44;5;3;
69238;PMS5003;56349;51.816;-0.026;2023-07-28T00:36:10;2;2;
69238;PMS5003;56349;51.816;-0.026;2023-07-28T00:38:36;3;3;
69238;PMS5003;56349;51.816;-0.026;2023-07-28T00:41:02;5;5;
69238;PMS5003;56349;51.816;-0.026;2023-07-28T00:43:28;5;3;
69238;PMS5003;56349;51.816;-0.026;2023-07-28T00:45:54;4;4;
69238;PMS5003;56349;51.816;-0.026;2023-07-28T00:48:20;3;3;
69238;PMS5003;56349;51.816;-0.026;2023-07-28T00:50:46;3;3;
69238;PMS5003;56349;51.816;-0.026;2023-07-28T00:53:11;4;3;
69238;PMS5003;56349;51.816;-0.026;2023-07-28T00:55:36;4;4;
69238;PMS5003;56349;51.816;-0.026;2023-07-28T00:58:02;3;2;
69238;PMS5003;56349;51.816;-0.026;2023-07-28T01:00:28;4;3;
69238;PMS5003;56349;51.816;-0.026;2023-07-28T01:02:53;2;2;
69238;PMS5003;56349;51.816;-0.026;2023-07-28T01:05:18;4;4;
69238;PMS5003;56349;51.816;-0.026;2023-07-28T01:07:49;6;3;
69238;PMS5003;56349;51.816;-0.026;2023-07-28T01:10:11;3;3;
69238;PMS5003;56349;51.816;-0.026;2023-07-28T01:12:36;4;4;
69238;PMS5003;56349;51.816;-0.026;2023-07-28T01:15:02;5;3;
69238;PMS5003;56349;51.816;-0.026;2023-07-28T01:17:28;4;3;
69238;PMS5003;56349;51.816;-0.026;2023-07-28T01:19:53;4;2;
69238;PMS5003;56349;51.816;-0.026;2023-07-28T01:22:33;6;4;
69238;PMS5003;56349;51.816;-0.026;2023-07-28T01:24:49;5;4;
69238;PMS5003;56349;51.816;-0.026;2023-07-28T01:27:11;4;4;
69238;PMS5003;56349;51.816;-0.026;2023-07-28T01:29:37;2;2;
69238;PMS5003;56349;51.816;-0.026;2023-07-28T01:32:03;3;3;
69238;PMS5003;56349;51.816;-0.026;2023-07-28T01:34:28;4;3;
69238;PMS5003;56349;51.816;-0.026;2023-07-28T01:36:54;4;3;
69238;PMS5003;56349;51.816;-0.026;2023-07-28T01:39:20;5;4;
69238;PMS5003;56349;51.816;-0.026;2023-07-28T01:41:46;4;4;
69238;PMS5003;56349;51.816;-0.026;2023-07-28T01:44:12;3;3;
69238;PMS5003;56349;51.816;-0.026;2023-07-28T01:46:38;2;2;
69238;PMS5003;56349;51.816;-0.026;2023-07-28T01:49:04;3;3;
69238;PMS5003;56349;51.816;-0.026;2023-07-28T01:51:30;4;4;
69238;PMS5003;56349;51.816;-0.026;2023-07-28T01:53:56;3;2;
69238;PMS5003;56349;51.816;-0.026;2023-07-28T01:56:22;2;2;
69238;PMS5003;56349;51.816;-0.026;2023-07-28T01:58:48;3;2;
69238;PMS5003;56349;51.816;-0.026;2023-07-28T02:01:14;4;4;
69238;PMS5003;56349;51.816;-0.026;2023-07-28T02:03:40;6;4;
69238;PMS5003;56349;51.816;-0.026;2023-07-28T02:06:06;3;3;
69238;PMS5003;56349;51.816;-0.026;2023-07-28T02:08:31;5;3;
69238;PMS5003;56349;51.816;-0.026;2023-07-28T02:10:57;2;1;
69238;PMS5003;56349;51.816;-0.026;2023-07-28T02:13:23;4;4;
69238;PMS5003;56349;51.816;-0.026;2023-07-28T02:15:49;3;2;
69238;PMS5003;56349;51.816;-0.026;2023-07-28T02:18:15;3;3;
69238;PMS5003;56349;51.816;-0.026;2023-07-28T02:20:41;3;3;
69238;PMS5003;56349;51.816;-0.026;2023-07-28T02:23:07;2;2;
69238;PMS5003;56349;51.816;-0.026;2023-07-28T02:25:33;4;3;
69238;PMS5003;56349;51.816;-0.026;2023-07-28T02:27:59;3;3;
69238;PMS5003;56349;51.816;-0.026;2023-07-28T02:30:25;3;3;
69238;PMS5003;56349;51.816;-0.026;2023-07-28T02:32:51;2;2;
69238;PMS5003;56349;51.816;-0.026;2023-07-28T02:35:17;3;3;
69238;PMS5003;56349;51.816;-0.026;2023-07-28T02:37:43;3;2;
69238;PMS5003;56349;51.816;-0.026;2023-07-28T02:40:09;3;3;
69238;PMS5003;56349;51.816;-0.026;2023-07-28T02:42:35;4;3;
69238;PMS5003;56349;51.816;-0.026;2023-07-28T02:45:01;2;2;
69238;PMS5003;56349;51.816;-0.026;2023-07-28T02:47:27;2;2;
69238;PMS5003;56349;51.816;-0.026;2023-07-28T02:49:53;5;4;
69238;PMS5003;56349;51.816;-0.026;2023-07-28T02:52:19;3;3;
69238;PMS5003;56349;51.816;-0.026;2023-07-28T02:54:45;2;2;
69238;PMS5003;56349;51.816;-0.026;2023-07-28T02:57:10;2;2;
69238;PMS5003;56349;51.816;-0.026;2023-07-28T02:59:36;5;5;
69238;PMS5003;56349;51.816;-0.026;2023-07-28T03:02:02;3;3;
69238;PMS5003;56349;51.816;-0.026;2023-07-28T03:04:27;4;3;
69238;PMS5003;56349;51.816;-0.026;2023-07-28T03:06:54;3;3;
69238;PMS5003;56349;51.816;-0.026;2023-07-28T03:09:20;5;5;
69238;PMS5003;56349;51.816;-0.026;2023-07-28T03:11:46;3;3;
69238;PMS5003;56349;51.816;-0.026;2023-07-28T03:14:11;1;1;
69238;PMS5003;56349;51.816;-0.026;2023-07-28T03:16:36;3;3;
69238;PMS5003;56349;51.816;-0.026;2023-07-28T03:19:02;2;2;
69238;PMS5003;56349;51.816;-0.026;2023-07-28T03:21:29;4;2;
69238;PMS5003;56349;51.816;-0.026;2023-07-28T03:23:53;4;4;
69238;PMS5003;56349;51.816;-0.026;2023-07-28T03:26:19;5;3;
69238;PMS5003;56349;51.816;-0.026;2023-07-28T03:28:45;4;4;
69238;PMS5003;56349;51.816;-0.026;2023-07-28T03:31:11;4;4;
69238;PMS5003;56349;51.816;-0.026;2023-07-28T03:33:36;4;4;
69238;PMS5003;56349;51.816;-0.026;2023-07-28T03:36:02;2;2;
69238;PMS5003;56349;51.816;-0.026;2023-07-28T03:38:28;3;3;
69238;PMS5003;56349;51.816;-0.026;2023-07-28T03:40:54;2;2;
69238;PMS5003;56349;51.816;-0.026;2023-07-28T03:43:20;4;2;
69238;PMS5003;56349;51.816;-0.026;2023-07-28T03:45:45;3;3;
69238;PMS5003;56349;51.816;-0.026;2023-07-28T03:48:11;3;2;
69238;PMS5003;56349;51.816;-0.026;2023-07-28T03:50:37;3;3;
69238;PMS5003;56349;51.816;-0.026;2023-07-28T03:53:03;3;2;
69238;PMS5003;56349;51.816;-0.026;2023-07-28T03:55:29;4;3;
69238;PMS5003;56349;51.816;-0.026;2023-07-28T03:57:55;3;3;
69238;PMS5003;56349;51.816;-0.026;2023-07-28T04:00:21;3;3;
69238;PMS5003;56349;51.816;-0.026;2023-07-28T04:02:47;2;2;
69238;PMS5003;56349;51.816;-0.026;2023-07-28T04:05:13;4;3;
69238;PMS5003;56349;51.816;-0.026;2023-07-28T04:07:39;3;3;
69238;PMS5003;56349;51.816;-0.026;2023-07-28T04:10:05;3;3;
69238;PMS5003;56349;51.816;-0.026;2023-07-28T04:12:31;2;2;
69238;PMS5003;56349;51.816;-0.026;2023-07-28T04:14:57;3;3;
69238;PMS5003;56349;51.816;-0.026;2023-07-28T04:17:23;3;3;
69238;PMS5003;56349;51.816;-0.026;2023-07-28T04:19:49;3;2;
69238;PMS5003;56349;51.816;-0.026;2023-07-28T04:22:14;5;3;
69238;PMS5003;56349;51.816;-0.026;2023-07-28T04:24:40;2;2;
69238;PMS5003;56349;51.816;-0.026;2023-07-28T04:27:06;2;2;
69238;PMS5003;56349;51.816;-0.026;2023-07-28T04:29:32;2;2;
69238;PMS5003;56349;51.816;-0.026;2023-07-28T04:31:59;2;2;
69238;PMS5003;56349;51.816;-0.026;2023-07-28T04:34:25;3;3;
69238;PMS5003;56349;51.816;-0.026;2023-07-28T04:36:51;6;4;
69238;PMS5003;56349;51.816;-0.026;2023-07-28T04:39:17;3;2;
69238;PMS5003;56349;51.816;-0.026;2023-07-28T04:41:42;1;1;
69238;PMS5003;56349;51.816;-0.026;2023-07-28T04:44:08;3;3;
69238;PMS5003;56349;51.816;-0.026;2023-07-28T04:46:35;2;2;
69238;PMS5003;56349;51.816;-0.026;2023-07-28T04:49:00;2;2;
69238;PMS5003;56349;51.816;-0.026;2023-07-28T04:51:26;3;2;
69238;PMS5003;56349;51.816;-0.026;2023-07-28T04:53:51;2;2;
69238;PMS5003;56349;51.816;-0.026;2023-07-28T04:56:17;2;2;
69238;PMS5003;56349;51.816;-0.026;2023-07-28T04:58:43;2;2;
69238;PMS5003;56349;51.816;-0.026;2023-07-28T05:01:09;4;2;
69238;PMS5003;56349;51.816;-0.026;2023-07-28T05:03:35;2;2;
69238;PMS5003;56349;51.816;-0.026;2023-07-28T05:06:02;4;4;
69238;PMS5003;56349;51.816;-0.026;2023-07-28T05:08:26;4;4;
69238;PMS5003;56349;51.816;-0.026;2023-07-28T05:10:52;3;2;
69238;PMS5003;56349;51.816;-0.026;2023-07-28T05:13:18;2;2;
69238;PMS5003;56349;51.816;-0.026;2023-07-28T05:15:44;1;1;
69238;PMS5003;56349;51.816;-0.026;2023-07-28T05:18:10;2;1;
69238;PMS5003;56349;51.816;-0.026;2023-07-28T05:20:36;2;2;
69238;PMS5003;56349;51.816;-0.026;2023-07-28T05:23:02;1;1;
69238;PMS5003;56349;51.816;-0.026;2023-07-28T05:25:28;2;2;
69238;PMS5003;56349;51.816;-0.026;2023-07-28T05:27:54;3;3;
69238;PMS5003;56349;51.816;-0.026;2023-07-28T05:30:20;1;1;
69238;PMS5003;56349;51.816;-0.026;2023-07-28T05:32:46;2;2;
69238;PMS5003;56349;51.816;-0.026;2023-07-28T05:35:11;3;3;
69238;PMS5003;56349;51.816;-0.026;2023-07-28T05:37:37;8;7;
69238;PMS5003;56349;51.816;-0.026;2023-07-28T05:40:03;2;1;
69238;PMS5003;56349;51.816;-0.026;2023-07-28T05:42:29;1;1;
69238;PMS5003;56349;51.816;-0.026;2023-07-28T05:44:55;3;2;
69238;PMS5003;56349;51.816;-0.026;2023-07-28T05:47:21;2;2;
69238;PMS5003;56349;51.816;-0.026;2023-07-28T05:49:47;2;1;
69238;PMS5003;56349;51.816;-0.026;2023-07-28T05:52:12;2;2;
69238;PMS5003;56349;51.816;-0.026;2023-07-28T05:54:38;1;1;
69238;PMS5003;56349;51.816;-0.026;2023-07-28T05:57:04;2;2;
69238;PMS5003;56349;51.816;-0.026;2023-07-28T05:59:29;2;1;
69238;PMS5003;56349;51.816;-0.026;2023-07-28T06:01:55;3;3;
69238;PMS5003;56349;51.816;-0.026;2023-07-28T06:04:21;2;2;
69238;PMS5003;56349;51.816;-0.026;2023-07-28T06:06:46;3;2;
69238;PMS5003;56349;51.816;-0.026;2023-07-28T06:09:12;2;2;
69238;PMS5003;56349;51.816;-0.026;2023-07-28T06:11:38;3;2;
69238;PMS5003;56349;51.816;-0.026;2023-07-28T06:14:04;1;1;
69238;PMS5003;56349;51.816;-0.026;2023-07-28T06:16:30;1;1;
69238;PMS5003;56349;51.816;-0.026;2023-07-28T06:18:56;2;2;
69238;PMS5003;56349;51.816;-0.026;2023-07-28T06:21:22;2;1;
69238;PMS5003;56349;51.816;-0.026;2023-07-28T06:23:48;3;2;
69238;PMS5003;56349;51.816;-0.026;2023-07-28T06:26:14;1;1;
69238;PMS5003;56349;51.816;-0.026;2023-07-28T06:28:40;2;2;
69238;PMS5003;56349;51.816;-0.026;2023-07-28T06:31:06;1;1;
69238;PMS5003;56349;51.816;-0.026;2023-07-28T06:33:31;2;1;
69238;PMS5003;56349;51.816;-0.026;2023-07-28T06:35:57;2;2;
69238;PMS5003;56349;51.816;-0.026;2023-07-28T06:38:24;2;2;
69238;PMS5003;56349;51.816;-0.026;2023-07-28T06:40:49;1;1;
69238;PMS5003;56349;51.816;-0.026;2023-07-28T06:43:15;1;1;
69238;PMS5003;56349;51.816;-0.026;2023-07-28T06:45:41;3;3;
69238;PMS5003;56349;51.816;-0.026;2023-07-28T06:48:07;2;2;
69238;PMS5003;56349;51.816;-0.026;2023-07-28T06:50:33;0;0;
69238;PMS5003;56349;51.816;-0.026;2023-07-28T06:52:59;2;2;
69238;PMS5003;56349;51.816;-0.026;2023-07-28T06:55:25;1;1;
69238;PMS5003;56349;51.816;-0.026;2023-07-28T07:00:17;2;0;
69238;PMS5003;56349;51.816;-0.026;2023-07-28T07:02:43;2;1;
69238;PMS5003;56349;51.816;-0.026;2023-07-28T07:05:09;1;1;
69238;PMS5003;56349;51.816;-0.026;2023-07-28T07:07:35;1;1;
69238;PMS5003;56349;51.816;-0.026;2023-07-28T07:10:00;1;1;
69238;PMS5003;56349;51.816;-0.026;2023-07-28T07:12:26;3;2;
69238;PMS5003;56349;51.816;-0.026;2023-07-28T07:14:52;1;1;
69238;PMS5003;56349;51.816;-0.026;2023-07-28T07:17:17;1;1;
69238;PMS5003;56349;51.816;-0.026;2023-07-28T07:19:43;2;2;
69238;PMS5003;56349;51.816;-0.026;2023-07-28T07:22:09;1;1;
69238;PMS5003;56349;51.816;-0.026;2023-07-28T07:24:35;1;1;
69238;PMS5003;56349;51.816;-0.026;2023-07-28T07:27:01;2;1;
69238;PMS5003;56349;51.816;-0.026;2023-07-28T07:29:26;2;1;
69238;PMS5003;56349;51.816;-0.026;2023-07-28T07:31:52;1;1;
69238;PMS5003;56349;51.816;-0.026;2023-07-28T07:34:18;0;0;
69238;PMS5003;56349;51.816;-0.026;2023-07-28T07:36:44;0;0;
69238;PMS5003;56349;51.816;-0.026;2023-07-28T07:39:10;0;0;
69238;PMS5003;56349;51.816;-0.026;2023-07-28T07:41:36;1;1;
69238;PMS5003;56349;51.816;-0.026;2023-07-28T07:44:02;1;1;
69238;PMS5003;56349;51.816;-0.026;2023-07-28T07:46:27;2;2;
69238;PMS5003;56349;51.816;-0.026;2023-07-28T07:48:53;1;1;
69238;PMS5003;56349;51.816;-0.026;2023-07-28T07:51:19;2;2;
69238;PMS5003;56349;51.816;-0.026;2023-07-28T07:53:45;1;1;
69238;PMS5003;56349;51.816;-0.026;2023-07-28T07:56:11;1;1;
69238;PMS5003;56349;51.816;-0.026;2023-07-28T07:58:37;1;1;
69238;PMS5003;56349;51.816;-0.026;2023-07-28T08:01:03;0;0;
69238;PMS5003;56349;51.816;-0.026;2023-07-28T08:03:29;2;2;
69238;PMS5003;56349;51.816;-0.026;2023-07-28T08:05:55;1;1;
69238;PMS5003;56349;51.816;-0.026;2023-07-28T08:08:23;1;1;
69238;PMS5003;56349;51.816;-0.026;2023-07-28T08:10:47;2;1;
69238;PMS5003;56349;51.816;-0.026;2023-07-28T08:13:12;2;2;
69238;PMS5003;56349;51.816;-0.026;2023-07-28T08:15:38;2;1;
69238;PMS5003;56349;51.816;-0.026;2023-07-28T08:18:03;1;1;
69238;PMS5003;56349;51.816;-0.026;2023-07-28T08:20:29;1;1;
69238;PMS5003;56349;51.816;-0.026;2023-07-28T08:22:55;2;1;
69238;PMS5003;56349;51.816;-0.026;2023-07-28T08:25:21;1;1;
69238;PMS5003;56349;51.816;-0.026;2023-07-28T08:27:47;0;0;
69238;PMS5003;56349;51.816;-0.026;2023-07-28T08:30:13;1;1;
69238;PMS5003;56349;51.816;-0.026;2023-07-28T08:32:39;0;0;
69238;PMS5003;56349;51.816;-0.026;2023-07-28T08:35:05;1;1;
69238;PMS5003;56349;51.816;-0.026;2023-07-28T08:37:30;1;1;
69238;PMS5003;56349;51.816;-0.026;2023-07-28T08:39:56;0;0;
69238;PMS5003;56349;51.816;-0.026;2023-07-28T08:42:22;1;1;
69238;PMS5003;56349;51.816;-0.026;2023-07-28T08:44:48;1;1;
69238;PMS5003;56349;51.816;-0.026;2023-07-28T08:47:13;1;1;
69238;PMS5003;56349;51.816;-0.026;2023-07-28T08:49:39;2;2;
69238;PMS5003;56349;51.816;-0.026;2023-07-28T08:52:05;1;1;
69238;PMS5003;56349;51.816;-0.026;2023-07-28T08:54:30;2;2;
69238;PMS5003;56349;51.816;-0.026;2023-07-28T08:56:58;1;1;
69238;PMS5003;56349;51.816;-0.026;2023-07-28T08:59:22;1;1;
69238;PMS5003;56349;51.816;-0.026;2023-07-28T09:01:49;1;1;
69238;PMS5003;56349;51.816;-0.026;2023-07-28T09:04:14;2;1;
69238;PMS5003;56349;51.816;-0.026;2023-07-28T09:06:40;1;1;
69238;PMS5003;56349;51.816;-0.026;2023-07-28T09:09:05;1;1;
69238;PMS5003;56349;51.816;-0.026;2023-07-28T09:11:31;0;0;
69238;PMS5003;56349;51.816;-0.026;2023-07-28T09:13:56;0;0;
69238;PMS5003;56349;51.816;-0.026;2023-07-28T09:16:22;1;1;
69238;PMS5003;56349;51.816;-0.026;2023-07-28T09:18:48;1;1;
69238;PMS5003;56349;51.816;-0.026;2023-07-28T09:21:16;1;1;
69238;PMS5003;56349;51.816;-0.026;2023-07-28T09:23:39;2;2;
69238;PMS5003;56349;51.816;-0.026;2023-07-28T09:26:04;1;1;
69238;PMS5003;56349;51.816;-0.026;2023-07-28T09:30:55;2;2;
69238;PMS5003;56349;51.816;-0.026;2023-07-28T09:35:47;3;2;
69238;PMS5003;56349;51.816;-0.026;2023-07-28T09:38:13;2;1;
69238;PMS5003;56349;51.816;-0.026;2023-07-28T09:40:38;2;1;
69238;PMS5003;56349;51.816;-0.026;2023-07-28T09:43:04;2;2;
69238;PMS5003;56349;51.816;-0.026;2023-07-28T09:45:30;2;0;
69238;PMS5003;56349;51.816;-0.026;2023-07-28T09:47:56;1;1;
69238;PMS5003;56349;51.816;-0.026;2023-07-28T09:50:22;1;1;
69238;PMS5003;56349;51.816;-0.026;2023-07-28T09:52:47;1;1;
69238;PMS5003;56349;51.816;-0.026;2023-07-28T09:55:13;4;3;
69238;PMS5003;56349;51.816;-0.026;2023-07-28T09:57:39;1;1;
69238;PMS5003;56349;51.816;-0.026;2023-07-28T10:00:07;2;2;
69238;PMS5003;56349;51.816;-0.026;2023-07-28T10:02:30;1;1;
69238;PMS5003;56349;51.816;-0.026;2023-07-28T10:04:56;2;1;
69238;PMS5003;56349;51.816;-0.026;2023-07-28T10:07:22;1;1;
69238;PMS5003;56349;51.816;-0.026;2023-07-28T10:09:47;0;0;
69238;PMS5003;56349;51.816;-0.026;2023-07-28T10:12:17;1;1;
69238;PMS5003;56349;51.816;-0.026;2023-07-28T10:14:39;1;1;
69238;PMS5003;56349;51.816;-0.026;2023-07-28T10:17:05;1;1;
69238;PMS5003;56349;51.816;-0.026;2023-07-28T10:19:33;1;1;
69238;PMS5003;56349;51.816;-0.026;2023-07-28T10:21:59;0;0;
69238;PMS5003;56349;51.816;-0.026;2023-07-28T10:24:24;0;0;
69238;PMS5003;56349;51.816;-0.026;2023-07-28T10:26:47;2;1;
69238;PMS5003;56349;51.816;-0.026;2023-07-28T10:29:14;0;0;
69238;PMS5003;56349;51.816;-0.026;2023-07-28T10:34:05;1;1;
69238;PMS5003;56349;51.816;-0.026;2023-07-28T10:36:32;1;1;
69238;PMS5003;56349;51.816;-0.026;2023-07-28T10:38:59;1;1;
69238;PMS5003;56349;51.816;-0.026;2023-07-28T10:41:20;0;0;
69238;PMS5003;56349;51.816;-0.026;2023-07-28T10:43:46;1;1;
69238;PMS5003;56349;51.816;-0.026;2023-07-28T10:46:14;0;0;
69238;PMS5003;56349;51.816;-0.026;2023-07-28T10:48:41;0;0;
69238;PMS5003;56349;51.816;-0.026;2023-07-28T10:51:03;0;0;
69238;PMS5003;56349;51.816;-0.026;2023-07-28T10:53:31;0;0;
69238;PMS5003;56349;51.816;-0.026;2023-07-28T10:55:55;0;0;
69238;PMS5003;56349;51.816;-0.026;2023-07-28T10:58:21;0;0;
69238;PMS5003;56349;51.816;-0.026;2023-07-28T11:00:47;1;1;
69238;PMS5003;56349;51.816;-0.026;2023-07-28T11:03:12;1;1;
69238;PMS5003;56349;51.816;-0.026;2023-07-28T11:05:38;2;2;
69238;PMS5003;56349;51.816;-0.026;2023-07-28T11:08:04;0;0;
69238;PMS5003;56349;51.816;-0.026;2023-07-28T11:10:30;0;0;
69238;PMS5003;56349;51.816;-0.026;2023-07-28T11:12:56;2;1;
69238;PMS5003;56349;51.816;-0.026;2023-07-28T11:15:20;1;0;
69238;PMS5003;56349;51.816;-0.026;2023-07-28T11:17:47;0;0;
69238;PMS5003;56349;51.816;-0.026;2023-07-28T11:20:14;1;1;
69238;PMS5003;56349;51.816;-0.026;2023-07-28T11:22:38;0;0;
69238;PMS5003;56349;51.816;-0.026;2023-07-28T11:25:05;1;1;
69238;PMS5003;56349;51.816;-0.026;2023-07-28T11:27:37;1;1;
69238;PMS5003;56349;51.816;-0.026;2023-07-28T11:29:56;1;1;
69238;PMS5003;56349;51.816;-0.026;2023-07-28T11:32:21;1;1;
69238;PMS5003;56349;51.816;-0.026;2023-07-28T11:34:48;1;1;
69238;PMS5003;56349;51.816;-0.026;2023-07-28T11:37:13;0;0;
69238;PMS5003;56349;51.816;-0.026;2023-07-28T11:39:41;1;1;
69238;PMS5003;56349;51.816;-0.026;2023-07-28T11:42:05;0;0;
69238;PMS5003;56349;51.816;-0.026;2023-07-28T11:46:57;1;1;
69238;PMS5003;56349;51.816;-0.026;2023-07-28T11:51:46;1;1;
69238;PMS5003;56349;51.816;-0.026;2023-07-28T11:54:12;0;0;
69238;PMS5003;56349;51.816;-0.026;2023-07-28T11:56:36;1;1;
69238;PMS5003;56349;51.816;-0.026;2023-07-28T11:59:01;1;1;
69238;PMS5003;56349;51.816;-0.026;2023-07-28T12:01:27;0;0;
69238;PMS5003;56349;51.816;-0.026;2023-07-28T12:03:53;1;1;
69238;PMS5003;56349;51.816;-0.026;2023-07-28T12:06:20;0;0;
69238;PMS5003;56349;51.816;-0.026;2023-07-28T12:08:46;1;1;
69238;PMS5003;56349;51.816;-0.026;2023-07-28T12:11:12;0;0;
69238;PMS5003;56349;51.816;-0.026;2023-07-28T12:16:03;1;1;
69238;PMS5003;56349;51.816;-0.026;2023-07-28T12:18:29;1;1;
69238;PMS5003;56349;51.816;-0.026;2023-07-28T12:20:54;1;1;
69238;PMS5003;56349;51.816;-0.026;2023-07-28T12:23:20;0;0;
69238;PMS5003;56349;51.816;-0.026;2023-07-28T12:25:45;0;0;
69238;PMS5003;56349;51.816;-0.026;2023-07-28T12:28:11;0;0;
69238;PMS5003;56349;51.816;-0.026;2023-07-28T12:30:37;1;1;
69238;PMS5003;56349;51.816;-0.026;2023-07-28T12:33:03;0;0;
69238;PMS5003;56349;51.816;-0.026;2023-07-28T12:35:28;0;0;
69238;PMS5003;56349;51.816;-0.026;2023-07-28T12:37:53;0;0;
69238;PMS5003;56349;51.816;-0.026;2023-07-28T12:40:19;1;1;
69238;PMS5003;56349;51.816;-0.026;2023-07-28T12:42:46;1;1;
69238;PMS5003;56349;51.816;-0.026;2023-07-28T12:45:11;1;1;
69238;PMS5003;56349;51.816;-0.026;2023-07-28T12:47:38;0;0;
69238;PMS5003;56349;51.816;-0.026;2023-07-28T12:50:02;0;0;
69238;PMS5003;56349;51.816;-0.026;2023-07-28T12:52:29;0;0;
69238;PMS5003;56349;51.816;-0.026;2023-07-28T12:54:53;0;0;
69238;PMS5003;56349;51.816;-0.026;2023-07-28T12:57:19;1;0;
69238;PMS5003;56349;51.816;-0.026;2023-07-28T12:59:45;0;0;
69238;PMS5003;56349;51.816;-0.026;2023-07-28T13:02:11;0;0;
69238;PMS5003;56349;51.816;-0.026;2023-07-28T13:04:37;1;1;
69238;PMS5003;56349;51.816;-0.026;2023-07-28T13:07:03;1;1;
69238;PMS5003;56349;51.816;-0.026;2023-07-28T13:09:28;1;1;
69238;PMS5003;56349;51.816;-0.026;2023-07-28T13:11:54;2;1;
69238;PMS5003;56349;51.816;-0.026;2023-07-28T13:14:22;4;0;
69238;PMS5003;56349;51.816;-0.026;2023-07-28T13:16:46;0;0;
69238;PMS5003;56349;51.816;-0.026;2023-07-28T13:19:12;0;0;
69238;PMS5003;56349;51.816;-0.026;2023-07-28T13:21:38;1;1;
69238;PMS5003;56349;51.816;-0.026;2023-07-28T13:24:04;0;0;
69238;PMS5003;56349;51.816;-0.026;2023-07-28T13:26:29;2;1;
69238;PMS5003;56349;51.816;-0.026;2023-07-28T13:28:55;1;0;
69238;PMS5003;56349;51.816;-0.026;2023-07-28T13:31:21;0;0;
69238;PMS5003;56349;51.816;-0.026;2023-07-28T13:33:46;1;0;
69238;PMS5003;56349;51.816;-0.026;2023-07-28T13:36:13;2;1;
69238;PMS5003;56349;51.816;-0.026;2023-07-28T13:38:39;0;0;
69238;PMS5003;56349;51.816;-0.026;2023-07-28T13:41:05;0;0;
69238;PMS5003;56349;51.816;-0.026;2023-07-28T13:43:30;1;0;
69238;PMS5003;56349;51.816;-0.026;2023-07-28T13:45:55;0;0;
69238;PMS5003;56349;51.816;-0.026;2023-07-28T13:48:21;1;1;
69238;PMS5003;56349;51.816;-0.026;2023-07-28T13:50:48;0;0;
69238;PMS5003;56349;51.816;-0.026;2023-07-28T13:53:13;0;0;
69238;PMS5003;56349;51.816;-0.026;2023-07-28T13:55:39;1;1;
69238;PMS5003;56349;51.816;-0.026;2023-07-28T13:58:05;0;0;
69238;PMS5003;56349;51.816;-0.026;2023-07-28T14:00:31;0;0;
69238;PMS5003;56349;51.816;-0.026;2023-07-28T14:02:57;0;0;
69238;PMS5003;56349;51.816;-0.026;2023-07-28T14:05:24;0;0;
69238;PMS5003;56349;51.816;-0.026;2023-07-28T14:07:50;0;0;
69238;PMS5003;56349;51.816;-0.026;2023-07-28T14:10:15;0;0;
69238;PMS5003;56349;51.816;-0.026;2023-07-28T14:12:41;1;0;
69238;PMS5003;56349;51.816;-0.026;2023-07-28T14:15:07;1;1;
69238;PMS5003;56349;51.816;-0.026;2023-07-28T14:17:33;0;0;
69238;PMS5003;56349;51.816;-0.026;2023-07-28T14:19:59;1;1;
69238;PMS5003;56349;51.816;-0.026;2023-07-28T14:22:25;0;0;
69238;PMS5003;56349;51.816;-0.026;2023-07-28T14:24:51;0;0;
69238;PMS5003;56349;51.816;-0.026;2023-07-28T14:27:17;1;1;
69238;PMS5003;56349;51.816;-0.026;2023-07-28T14:29:43;0;0;
69238;PMS5003;56349;51.816;-0.026;2023-07-28T14:32:09;1;0;
69238;PMS5003;56349;51.816;-0.026;2023-07-28T14:34:35;0;0;
69238;PMS5003;56349;51.816;-0.026;2023-07-28T14:37:03;1;1;
69238;PMS5003;56349;51.816;-0.026;2023-07-28T14:39:26;0;0;
69238;PMS5003;56349;51.816;-0.026;2023-07-28T14:41:51;2;2;
69238;PMS5003;56349;51.816;-0.026;2023-07-28T14:44:18;0;0;
69238;PMS5003;56349;51.816;-0.026;2023-07-28T14:46:44;3;1;
69238;PMS5003;56349;51.816;-0.026;2023-07-28T14:49:10;0;0;
69238;PMS5003;56349;51.816;-0.026;2023-07-28T14:51:36;1;1;
69238;PMS5003;56349;51.816;-0.026;2023-07-28T14:54:02;3;2;
69238;PMS5003;56349;51.816;-0.026;2023-07-28T14:56:28;3;2;
69238;PMS5003;56349;51.816;-0.026;2023-07-28T14:58:54;1;0;
69238;PMS5003;56349;51.816;-0.026;2023-07-28T15:01:19;0;0;
69238;PMS5003;56349;51.816;-0.026;2023-07-28T15:03:45;3;3;
69238;PMS5003;56349;51.816;-0.026;2023-07-28T15:06:12;1;0;
69238;PMS5003;56349;51.816;-0.026;2023-07-28T15:08:37;1;1;
69238;PMS5003;56349;51.816;-0.026;2023-07-28T15:11:02;1;1;
69238;PMS5003;56349;51.816;-0.026;2023-07-28T15:13:28;1;1;
69238;PMS5003;56349;51.816;-0.026;2023-07-28T15:15:53;3;2;
69238;PMS5003;56349;51.816;-0.026;2023-07-28T15:18:18;3;1;
69238;PMS5003;56349;51.816;-0.026;2023-07-28T15:20:44;2;2;
69238;PMS5003;56349;51.816;-0.026;2023-07-28T15:23:10;1;1;
69238;PMS5003;56349;51.816;-0.026;2023-07-28T15:25:37;2;2;
69238;PMS5003;56349;51.816;-0.026;2023-07-28T15:28:02;2;2;
69238;PMS5003;56349;51.816;-0.026;2023-07-28T15:30:27;1;1;
69238;PMS5003;56349;51.816;-0.026;2023-07-28T15:32:53;3;1;
69238;PMS5003;56349;51.816;-0.026;2023-07-28T15:35:19;1;1;
69238;PMS5003;56349;51.816;-0.026;2023-07-28T15:37:45;2;1;
69238;PMS5003;56349;51.816;-0.026;2023-07-28T15:40:11;3;2;
69238;PMS5003;56349;51.816;-0.026;2023-07-28T15:42:37;2;2;
69238;PMS5003;56349;51.816;-0.026;2023-07-28T15:45:03;1;1;
69238;PMS5003;56349;51.816;-0.026;2023-07-28T15:47:29;1;1;
69238;PMS5003;56349;51.816;-0.026;2023-07-28T15:49:55;0;0;
69238;PMS5003;56349;51.816;-0.026;2023-07-28T15:52:21;2;2;
69238;PMS5003;56349;51.816;-0.026;2023-07-28T15:54:46;3;2;
69238;PMS5003;56349;51.816;-0.026;2023-07-28T15:57:12;3;1;
69238;PMS5003;56349;51.816;-0.026;2023-07-28T15:59:38;2;2;
69238;PMS5003;56349;51.816;-0.026;2023-07-28T16:02:04;2;2;
69238;PMS5003;56349;51.816;-0.026;2023-07-28T16:04:29;3;0;
69238;PMS5003;56349;51.816;-0.026;2023-07-28T16:06:54;1;1;
69238;PMS5003;56349;51.816;-0.026;2023-07-28T16:09:20;0;0;
69238;PMS5003;56349;51.816;-0.026;2023-07-28T16:11:46;1;1;
69238;PMS5003;56349;51.816;-0.026;2023-07-28T16:14:13;1;1;
69238;PMS5003;56349;51.816;-0.026;2023-07-28T16:16:39;1;0;
69238;PMS5003;56349;51.816;-0.026;2023-07-28T16:19:04;1;0;
69238;PMS5003;56349;51.816;-0.026;2023-07-28T16:21:30;0;0;
69238;PMS5003;56349;51.816;-0.026;2023-07-28T16:23:56;1;1;
69238;PMS5003;56349;51.816;-0.026;2023-07-28T16:26:22;0;0;
69238;PMS5003;56349;51.816;-0.026;2023-07-28T16:28:48;0;0;
69238;PMS5003;56349;51.816;-0.026;2023-07-28T16:31:14;1;0;
69238;PMS5003;56349;51.816;-0.026;2023-07-28T16:33:40;1;1;
69238;PMS5003;56349;51.816;-0.026;2023-07-28T16:36:07;1;1;
69238;PMS5003;56349;51.816;-0.026;2023-07-28T16:38:33;3;1;
69238;PMS5003;56349;51.816;-0.026;2023-07-28T16:40:59;3;3;